CSN388 EINN-WMKK
Flight info
| Callsign | CSN388 |
|---|---|
| Flight time | N/A |
| Altitude | 33000 |
| Route | ABAGU3B ABAGU DCT BEPAN DCT LANON DCT FITBO DCT ADMIS DCT MOMIC DCT WOODY DCT SORAT/N0490F350 DCT BIGSU DCT TIKNI DCT GORKO DCT TIPAM DCT MIKOV DCT NORAH DCT ENIMA DCT DINRO N743 UDROS UM859 KARDE UN644 ROLIN N644 ODILI/N0497F370 N644 LAGAS M747 SUBUT T923 ERLEV M11 RODAR A909 LEMOD N644 DI M875 IGONA/N0497F390 M875 KAKID M770 OBMOG L515 PUT B579 VPL Y503 RINBA Y507 KAKAK KAKAK1G |
| Aircraft | A388/J-SADE2E3FGHIJ3J4J5M1RWXY/LB1D1 |
Departure
| Time | N/A |
|---|---|
| Airport | Shannon Airport (EINN) |
Arrival
| Time | 2026-05-07 11:08 |
|---|---|
| Airport | Kuala Lumpur International Airport (WMKK) |
| Time | Latitude | Longitude | Altitude | Speed | Heading |
|---|---|---|---|---|---|
| 2026-05-07 08:51 | 14.92718 | 93.18004 | 32820 ft | 517 kts | 135° |
| 2026-05-07 08:52 | 14.88615 | 93.22481 | 32814 ft | 515 kts | 134° |
| 2026-05-07 08:52 | 14.83700 | 93.27843 | 32816 ft | 515 kts | 134° |
| 2026-05-07 08:53 | 14.78841 | 93.33140 | 32814 ft | 515 kts | 134° |
| 2026-05-07 08:53 | 14.73940 | 93.38478 | 32815 ft | 515 kts | 134° |
| 2026-05-07 08:54 | 14.69000 | 93.43854 | 32821 ft | 515 kts | 134° |
| 2026-05-07 08:54 | 14.64102 | 93.49181 | 32815 ft | 515 kts | 134° |
| 2026-05-07 08:55 | 14.59188 | 93.54522 | 32820 ft | 515 kts | 134° |
| 2026-05-07 08:55 | 14.54267 | 93.59867 | 32815 ft | 515 kts | 134° |
| 2026-05-07 08:56 | 14.49376 | 93.65175 | 32816 ft | 512 kts | 134° |
| 2026-05-07 08:56 | 14.44494 | 93.70471 | 32811 ft | 513 kts | 134° |
| 2026-05-07 08:57 | 14.39584 | 93.75793 | 32815 ft | 513 kts | 134° |
| 2026-05-07 08:57 | 14.34755 | 93.81024 | 32819 ft | 513 kts | 134° |
| 2026-05-07 08:58 | 14.29852 | 93.86330 | 32818 ft | 513 kts | 134° |
| 2026-05-07 08:58 | 14.24947 | 93.91636 | 32816 ft | 512 kts | 134° |
| 2026-05-07 08:59 | 14.20090 | 93.96887 | 32813 ft | 513 kts | 134° |
| 2026-05-07 08:59 | 14.15173 | 94.02197 | 32810 ft | 512 kts | 133° |
| 2026-05-07 09:00 | 14.10264 | 94.07498 | 32814 ft | 512 kts | 133° |
| 2026-05-07 09:00 | 14.05373 | 94.12775 | 32814 ft | 513 kts | 133° |
| 2026-05-07 09:01 | 14.00446 | 94.18086 | 32818 ft | 513 kts | 133° |
| 2026-05-07 09:01 | 13.95579 | 94.23330 | 32810 ft | 514 kts | 133° |
| 2026-05-07 09:02 | 13.90683 | 94.28601 | 32812 ft | 514 kts | 133° |
| 2026-05-07 09:02 | 13.85775 | 94.33883 | 32817 ft | 513 kts | 133° |
| 2026-05-07 09:03 | 13.80835 | 94.39194 | 32815 ft | 513 kts | 133° |
| 2026-05-07 09:03 | 13.75916 | 94.44479 | 32815 ft | 512 kts | 133° |
| 2026-05-07 09:04 | 13.71090 | 94.49663 | 32812 ft | 512 kts | 133° |
| 2026-05-07 09:04 | 13.66163 | 94.54950 | 32812 ft | 512 kts | 133° |
| 2026-05-07 09:05 | 13.61267 | 94.60201 | 32809 ft | 513 kts | 133° |
| 2026-05-07 09:05 | 13.56351 | 94.65471 | 32815 ft | 512 kts | 133° |
| 2026-05-07 09:06 | 13.51459 | 94.70710 | 32812 ft | 513 kts | 133° |
| 2026-05-07 09:06 | 13.46562 | 94.75952 | 32812 ft | 513 kts | 133° |
| 2026-05-07 09:07 | 13.41634 | 94.81224 | 32816 ft | 512 kts | 133° |
| 2026-05-07 09:07 | 13.36715 | 94.86483 | 32813 ft | 512 kts | 133° |
| 2026-05-07 09:08 | 13.31791 | 94.91744 | 32814 ft | 512 kts | 133° |
| 2026-05-07 09:08 | 13.26840 | 94.97031 | 32817 ft | 514 kts | 133° |
| 2026-05-07 09:09 | 13.21907 | 95.02295 | 32815 ft | 514 kts | 133° |
| 2026-05-07 09:09 | 13.17000 | 95.07528 | 32815 ft | 514 kts | 133° |
| 2026-05-07 09:10 | 13.12056 | 95.12797 | 32817 ft | 514 kts | 133° |
| 2026-05-07 09:10 | 13.07144 | 95.18028 | 32818 ft | 513 kts | 133° |
| 2026-05-07 09:11 | 13.02215 | 95.23274 | 32813 ft | 513 kts | 133° |
| 2026-05-07 09:11 | 12.97259 | 95.28547 | 32812 ft | 513 kts | 133° |
| 2026-05-07 09:12 | 12.92322 | 95.33797 | 32817 ft | 513 kts | 133° |
| 2026-05-07 09:12 | 12.87429 | 95.38996 | 32810 ft | 510 kts | 133° |
| 2026-05-07 09:13 | 12.82580 | 95.44128 | 32814 ft | 510 kts | 134° |
| 2026-05-07 09:13 | 12.77601 | 95.49262 | 32810 ft | 510 kts | 134° |
| 2026-05-07 09:14 | 12.72614 | 95.54401 | 32816 ft | 510 kts | 134° |
| 2026-05-07 09:14 | 12.67601 | 95.59581 | 32812 ft | 512 kts | 134° |
| 2026-05-07 09:15 | 12.62640 | 95.64704 | 32810 ft | 512 kts | 134° |
| 2026-05-07 09:15 | 12.57650 | 95.69856 | 32812 ft | 512 kts | 134° |
| 2026-05-07 09:16 | 12.52669 | 95.74995 | 32812 ft | 512 kts | 134° |
| 2026-05-07 09:16 | 12.47654 | 95.80165 | 32810 ft | 512 kts | 134° |
| 2026-05-07 09:17 | 12.42666 | 95.85306 | 32812 ft | 512 kts | 134° |
| 2026-05-07 09:17 | 12.37650 | 95.90472 | 32812 ft | 512 kts | 134° |
| 2026-05-07 09:18 | 12.32655 | 95.95614 | 32808 ft | 513 kts | 134° |
| 2026-05-07 09:18 | 12.27666 | 96.00747 | 32810 ft | 514 kts | 134° |
| 2026-05-07 09:19 | 12.22712 | 96.05840 | 32810 ft | 513 kts | 134° |
| 2026-05-07 09:19 | 12.17684 | 96.11007 | 32807 ft | 515 kts | 134° |
| 2026-05-07 09:20 | 12.12629 | 96.16198 | 32808 ft | 515 kts | 134° |
| 2026-05-07 09:20 | 12.07597 | 96.21364 | 32807 ft | 516 kts | 134° |
| 2026-05-07 09:21 | 12.02544 | 96.26547 | 32807 ft | 516 kts | 134° |
| 2026-05-07 09:21 | 11.97499 | 96.31720 | 32805 ft | 515 kts | 134° |
| 2026-05-07 09:22 | 11.92458 | 96.36732 | 32813 ft | 516 kts | 139° |
| 2026-05-07 09:22 | 11.86655 | 96.40942 | 32805 ft | 517 kts | 149° |
| 2026-05-07 09:23 | 11.80290 | 96.44245 | 32807 ft | 518 kts | 153° |
| 2026-05-07 09:23 | 11.73841 | 96.47533 | 32806 ft | 517 kts | 153° |
| 2026-05-07 09:24 | 11.67400 | 96.50818 | 32804 ft | 517 kts | 153° |
| 2026-05-07 09:24 | 11.60990 | 96.54081 | 32805 ft | 517 kts | 153° |
| 2026-05-07 09:25 | 11.54586 | 96.57338 | 32806 ft | 518 kts | 153° |
| 2026-05-07 09:25 | 11.48220 | 96.60575 | 32808 ft | 518 kts | 153° |
| 2026-05-07 09:26 | 11.41805 | 96.63835 | 32803 ft | 518 kts | 153° |
| 2026-05-07 09:26 | 11.35393 | 96.67092 | 32805 ft | 518 kts | 153° |
| 2026-05-07 09:27 | 11.29009 | 96.70333 | 32805 ft | 518 kts | 153° |
| 2026-05-07 09:28 | 11.19335 | 96.75241 | 32803 ft | 517 kts | 153° |
| 2026-05-07 09:28 | 11.13048 | 96.78429 | 32803 ft | 517 kts | 153° |
| 2026-05-07 09:29 | 11.06637 | 96.81678 | 32801 ft | 518 kts | 153° |
| 2026-05-07 09:29 | 11.00255 | 96.84910 | 32801 ft | 517 kts | 153° |
| 2026-05-07 09:30 | 10.93898 | 96.88128 | 32799 ft | 515 kts | 153° |
| 2026-05-07 09:30 | 10.87549 | 96.91341 | 32799 ft | 515 kts | 153° |
| 2026-05-07 09:31 | 10.81194 | 96.94556 | 32800 ft | 515 kts | 153° |
| 2026-05-07 09:31 | 10.74805 | 96.97786 | 32799 ft | 515 kts | 153° |
| 2026-05-07 09:32 | 10.68419 | 97.01013 | 32802 ft | 515 kts | 153° |
| 2026-05-07 09:32 | 10.62098 | 97.04206 | 32805 ft | 515 kts | 153° |
| 2026-05-07 09:33 | 10.55740 | 97.07416 | 32803 ft | 515 kts | 153° |
| 2026-05-07 09:33 | 10.49429 | 97.10601 | 32803 ft | 515 kts | 153° |
| 2026-05-07 09:34 | 10.43058 | 97.13813 | 32800 ft | 512 kts | 152° |
| 2026-05-07 09:34 | 10.36739 | 97.17000 | 32799 ft | 512 kts | 152° |
| 2026-05-07 09:35 | 10.30377 | 97.20206 | 32798 ft | 512 kts | 152° |
| 2026-05-07 09:35 | 10.24010 | 97.23413 | 32799 ft | 512 kts | 152° |
| 2026-05-07 09:36 | 10.17660 | 97.26610 | 32799 ft | 512 kts | 152° |
| 2026-05-07 09:36 | 10.11278 | 97.29822 | 32802 ft | 512 kts | 152° |
| 2026-05-07 09:37 | 10.04945 | 97.33008 | 32798 ft | 511 kts | 152° |
| 2026-05-07 09:37 | 9.98621 | 97.36189 | 32991 ft | 513 kts | 152° |
| 2026-05-07 09:38 | 9.92245 | 97.39419 | 32998 ft | 512 kts | 152° |
| 2026-05-07 09:38 | 9.85935 | 97.42623 | 32998 ft | 512 kts | 152° |
| 2026-05-07 09:39 | 9.79638 | 97.45820 | 32999 ft | 513 kts | 152° |
| 2026-05-07 09:39 | 9.73295 | 97.49038 | 33003 ft | 513 kts | 152° |
| 2026-05-07 09:40 | 9.68033 | 97.51706 | 33003 ft | 513 kts | 152° |
| 2026-05-07 09:40 | 9.61691 | 97.54920 | 33002 ft | 513 kts | 152° |
| 2026-05-07 09:41 | 9.55326 | 97.58145 | 33005 ft | 513 kts | 152° |
| 2026-05-07 09:41 | 9.48950 | 97.61375 | 32999 ft | 515 kts | 152° |
| 2026-05-07 09:42 | 9.42558 | 97.64610 | 32999 ft | 515 kts | 152° |
| 2026-05-07 09:42 | 9.36203 | 97.67826 | 32999 ft | 516 kts | 152° |
| 2026-05-07 09:43 | 9.29815 | 97.71058 | 33002 ft | 517 kts | 152° |
| 2026-05-07 09:43 | 9.23421 | 97.74290 | 33001 ft | 517 kts | 152° |
| 2026-05-07 09:44 | 9.17009 | 97.77530 | 33002 ft | 517 kts | 152° |
| 2026-05-07 09:44 | 9.10598 | 97.80769 | 33001 ft | 517 kts | 152° |
| 2026-05-07 09:45 | 9.04174 | 97.84013 | 33000 ft | 517 kts | 152° |
| 2026-05-07 09:45 | 8.97764 | 97.87248 | 33004 ft | 519 kts | 152° |
| 2026-05-07 09:46 | 8.91325 | 97.90491 | 33007 ft | 520 kts | 152° |
| 2026-05-07 09:46 | 8.84894 | 97.93730 | 33004 ft | 520 kts | 152° |
| 2026-05-07 09:47 | 8.78484 | 97.96957 | 33001 ft | 520 kts | 152° |
| 2026-05-07 09:47 | 8.72084 | 98.00178 | 33005 ft | 519 kts | 153° |
| 2026-05-07 09:48 | 8.65749 | 98.03366 | 33006 ft | 520 kts | 153° |
| 2026-05-07 09:48 | 8.59341 | 98.06587 | 32999 ft | 517 kts | 152° |
| 2026-05-07 09:49 | 8.52893 | 98.09829 | 32998 ft | 517 kts | 152° |
| 2026-05-07 09:49 | 8.46478 | 98.13059 | 32999 ft | 517 kts | 152° |
| 2026-05-07 09:50 | 8.40129 | 98.16254 | 32997 ft | 517 kts | 152° |
| 2026-05-07 09:50 | 8.33755 | 98.19459 | 32992 ft | 517 kts | 152° |
| 2026-05-07 09:51 | 8.27325 | 98.22692 | 32997 ft | 517 kts | 152° |
| 2026-05-07 09:51 | 8.21035 | 98.25855 | 33000 ft | 513 kts | 153° |
| 2026-05-07 09:52 | 8.14672 | 98.29053 | 33001 ft | 513 kts | 152° |
| 2026-05-07 09:52 | 8.08727 | 98.32877 | 33003 ft | 512 kts | 141° |
| 2026-05-07 09:53 | 8.03214 | 98.37441 | 32999 ft | 514 kts | 140° |
| 2026-05-07 09:53 | 7.97708 | 98.41971 | 32993 ft | 514 kts | 140° |
| 2026-05-07 09:54 | 7.92246 | 98.46462 | 32973 ft | 514 kts | 140° |
| 2026-05-07 09:54 | 7.86762 | 98.50974 | 32977 ft | 514 kts | 140° |
| 2026-05-07 09:55 | 7.81278 | 98.55484 | 32973 ft | 514 kts | 140° |
| 2026-05-07 09:55 | 7.75779 | 98.60005 | 32979 ft | 514 kts | 140° |
| 2026-05-07 09:56 | 7.70250 | 98.64550 | 32986 ft | 514 kts | 140° |
| 2026-05-07 09:56 | 7.64793 | 98.69039 | 32986 ft | 514 kts | 140° |
| 2026-05-07 09:57 | 7.59322 | 98.73538 | 32986 ft | 514 kts | 140° |
| 2026-05-07 09:57 | 7.53805 | 98.78072 | 32984 ft | 515 kts | 140° |
| 2026-05-07 09:58 | 7.48243 | 98.82640 | 32996 ft | 516 kts | 140° |
| 2026-05-07 09:58 | 7.42713 | 98.87179 | 32996 ft | 516 kts | 140° |
| 2026-05-07 09:59 | 7.37220 | 98.91683 | 32997 ft | 516 kts | 140° |
| 2026-05-07 09:59 | 7.31675 | 98.96229 | 33007 ft | 516 kts | 140° |
| 2026-05-07 10:00 | 7.26148 | 99.00757 | 33009 ft | 516 kts | 140° |
| 2026-05-07 10:00 | 7.20637 | 99.05272 | 33010 ft | 516 kts | 140° |
| 2026-05-07 10:01 | 7.15102 | 99.09806 | 32992 ft | 516 kts | 140° |
| 2026-05-07 10:01 | 7.09561 | 99.14341 | 32999 ft | 515 kts | 140° |
| 2026-05-07 10:02 | 7.04082 | 99.18824 | 32996 ft | 515 kts | 140° |
| 2026-05-07 10:02 | 6.98602 | 99.23307 | 32995 ft | 515 kts | 140° |
| 2026-05-07 10:03 | 6.93084 | 99.27821 | 32999 ft | 515 kts | 140° |
| 2026-05-07 10:03 | 6.87546 | 99.32348 | 32999 ft | 515 kts | 140° |
| 2026-05-07 10:04 | 6.82049 | 99.36842 | 33000 ft | 515 kts | 140° |
| 2026-05-07 10:04 | 6.76481 | 99.41391 | 32993 ft | 515 kts | 140° |
| 2026-05-07 10:05 | 6.70965 | 99.45896 | 32992 ft | 514 kts | 140° |
| 2026-05-07 10:05 | 6.65464 | 99.50389 | 32994 ft | 514 kts | 140° |
| 2026-05-07 10:06 | 6.59912 | 99.54922 | 32993 ft | 516 kts | 140° |
| 2026-05-07 10:06 | 6.54435 | 99.59392 | 32988 ft | 516 kts | 140° |
| 2026-05-07 10:07 | 6.48904 | 99.63904 | 32981 ft | 516 kts | 140° |
| 2026-05-07 10:07 | 6.43341 | 99.68385 | 32975 ft | 514 kts | 141° |
| 2026-05-07 10:08 | 6.37724 | 99.72763 | 32974 ft | 516 kts | 141° |
| 2026-05-07 10:08 | 6.32469 | 99.77561 | 32995 ft | 514 kts | 133° |
| 2026-05-07 10:08 | 6.29997 | 99.80108 | 32818 ft | 511 kts | 134° |
| 2026-05-07 10:09 | 6.27554 | 99.82610 | 32244 ft | 507 kts | 134° |
| 2026-05-07 10:09 | 6.25105 | 99.85114 | 31644 ft | 500 kts | 134° |
| 2026-05-07 10:09 | 6.22686 | 99.87586 | 30959 ft | 495 kts | 133° |
| 2026-05-07 10:09 | 6.20293 | 99.90031 | 30263 ft | 490 kts | 133° |
| 2026-05-07 10:10 | 6.17954 | 99.92423 | 29587 ft | 485 kts | 133° |
| 2026-05-07 10:10 | 6.15622 | 99.94809 | 28854 ft | 479 kts | 133° |
| 2026-05-07 10:10 | 6.13302 | 99.97181 | 28145 ft | 474 kts | 133° |
| 2026-05-07 10:10 | 6.11004 | 99.99531 | 27423 ft | 469 kts | 133° |
| 2026-05-07 10:11 | 6.08756 | 100.01829 | 26776 ft | 464 kts | 133° |
| 2026-05-07 10:11 | 6.06517 | 100.04118 | 26093 ft | 459 kts | 133° |
| 2026-05-07 10:11 | 6.04302 | 100.06382 | 25446 ft | 454 kts | 133° |
| 2026-05-07 10:11 | 6.02118 | 100.08614 | 24808 ft | 450 kts | 133° |
| 2026-05-07 10:12 | 5.99948 | 100.10832 | 24143 ft | 446 kts | 133° |
| 2026-05-07 10:12 | 5.97779 | 100.13048 | 23528 ft | 442 kts | 133° |
| 2026-05-07 10:12 | 5.95637 | 100.15236 | 22841 ft | 437 kts | 133° |
| 2026-05-07 10:12 | 5.93524 | 100.17395 | 22148 ft | 432 kts | 133° |
| 2026-05-07 10:13 | 5.91441 | 100.19522 | 21463 ft | 427 kts | 133° |
| 2026-05-07 10:13 | 5.89396 | 100.21610 | 20820 ft | 422 kts | 133° |
| 2026-05-07 10:13 | 5.87354 | 100.23695 | 20176 ft | 418 kts | 133° |
| 2026-05-07 10:13 | 5.85340 | 100.25751 | 19889 ft | 414 kts | 133° |
| 2026-05-07 10:14 | 5.83358 | 100.27776 | 19794 ft | 416 kts | 133° |
| 2026-05-07 10:14 | 5.81320 | 100.29857 | 19793 ft | 417 kts | 133° |
| 2026-05-07 10:14 | 5.79296 | 100.31922 | 19793 ft | 417 kts | 133° |
| 2026-05-07 10:14 | 5.77265 | 100.33996 | 19795 ft | 417 kts | 133° |
| 2026-05-07 10:15 | 5.75241 | 100.36061 | 19791 ft | 417 kts | 133° |
| 2026-05-07 10:15 | 5.73203 | 100.38140 | 19792 ft | 417 kts | 133° |
| 2026-05-07 10:15 | 5.71180 | 100.40205 | 19789 ft | 417 kts | 133° |
| 2026-05-07 10:15 | 5.69162 | 100.42263 | 19792 ft | 417 kts | 133° |
| 2026-05-07 10:16 | 5.67126 | 100.44340 | 19796 ft | 417 kts | 133° |
| 2026-05-07 10:16 | 5.65130 | 100.46375 | 19793 ft | 417 kts | 133° |
| 2026-05-07 10:16 | 5.63125 | 100.48419 | 19794 ft | 417 kts | 133° |
| 2026-05-07 10:16 | 5.61126 | 100.50458 | 19783 ft | 417 kts | 133° |
| 2026-05-07 10:17 | 5.59103 | 100.52520 | 19780 ft | 417 kts | 133° |
| 2026-05-07 10:17 | 5.57067 | 100.54596 | 19780 ft | 417 kts | 133° |
| 2026-05-07 10:17 | 5.55042 | 100.56661 | 19781 ft | 417 kts | 133° |
| 2026-05-07 10:17 | 5.53003 | 100.58739 | 19788 ft | 418 kts | 133° |
| 2026-05-07 10:18 | 5.50966 | 100.60814 | 19791 ft | 418 kts | 133° |
| 2026-05-07 10:18 | 5.48977 | 100.62841 | 19795 ft | 420 kts | 133° |
| 2026-05-07 10:18 | 5.46943 | 100.64912 | 19792 ft | 417 kts | 133° |
| 2026-05-07 10:18 | 5.44923 | 100.66971 | 19792 ft | 417 kts | 133° |
| 2026-05-07 10:19 | 5.42921 | 100.69012 | 19795 ft | 417 kts | 133° |
| 2026-05-07 10:19 | 5.40896 | 100.71074 | 19795 ft | 417 kts | 133° |
| 2026-05-07 10:19 | 5.38812 | 100.73052 | 19813 ft | 419 kts | 141° |
| 2026-05-07 10:19 | 5.36330 | 100.74592 | 19818 ft | 421 kts | 153° |
| 2026-05-07 10:20 | 5.33630 | 100.75525 | 19817 ft | 424 kts | 166° |
| 2026-05-07 10:20 | 5.30715 | 100.75999 | 19821 ft | 424 kts | 169° |
| 2026-05-07 10:20 | 5.27796 | 100.76448 | 19819 ft | 424 kts | 169° |
| 2026-05-07 10:20 | 5.24909 | 100.76903 | 19817 ft | 424 kts | 169° |
| 2026-05-07 10:21 | 5.22005 | 100.77364 | 19809 ft | 425 kts | 169° |
| 2026-05-07 10:21 | 5.19097 | 100.77826 | 19807 ft | 425 kts | 169° |
| 2026-05-07 10:21 | 5.16172 | 100.78290 | 19809 ft | 425 kts | 169° |
| 2026-05-07 10:21 | 5.13250 | 100.78752 | 19811 ft | 425 kts | 169° |
| 2026-05-07 10:22 | 5.10370 | 100.79208 | 19810 ft | 425 kts | 169° |
| 2026-05-07 10:22 | 5.07449 | 100.79669 | 19807 ft | 425 kts | 169° |
| 2026-05-07 10:22 | 5.04539 | 100.80129 | 19803 ft | 425 kts | 169° |
| 2026-05-07 10:22 | 5.01635 | 100.80588 | 19804 ft | 425 kts | 169° |
| 2026-05-07 10:23 | 4.98759 | 100.81043 | 19801 ft | 425 kts | 169° |
| 2026-05-07 10:23 | 4.95848 | 100.81503 | 19802 ft | 425 kts | 169° |
| 2026-05-07 10:23 | 4.92961 | 100.81959 | 19793 ft | 425 kts | 169° |
| 2026-05-07 10:23 | 4.90042 | 100.82420 | 19771 ft | 423 kts | 169° |
| 2026-05-07 10:24 | 4.87185 | 100.82871 | 19417 ft | 420 kts | 169° |
| 2026-05-07 10:24 | 4.84330 | 100.83321 | 18860 ft | 418 kts | 169° |
| 2026-05-07 10:24 | 4.81495 | 100.83769 | 18254 ft | 414 kts | 169° |
| 2026-05-07 10:24 | 4.78683 | 100.84213 | 17575 ft | 411 kts | 169° |
| 2026-05-07 10:25 | 4.75875 | 100.84657 | 16894 ft | 406 kts | 169° |
| 2026-05-07 10:25 | 4.73158 | 100.85086 | 16239 ft | 402 kts | 169° |
| 2026-05-07 10:25 | 4.70411 | 100.85520 | 15595 ft | 398 kts | 169° |
| 2026-05-07 10:25 | 4.67680 | 100.85951 | 15032 ft | 404 kts | 168° |
| 2026-05-07 10:26 | 4.64914 | 100.86391 | 14822 ft | 416 kts | 169° |
| 2026-05-07 10:26 | 4.62079 | 100.86839 | 14765 ft | 419 kts | 169° |
| 2026-05-07 10:26 | 4.60200 | 100.87135 | 14768 ft | 419 kts | 169° |
| 2026-05-07 10:26 | 4.57349 | 100.87585 | 14767 ft | 419 kts | 169° |
| 2026-05-07 10:27 | 4.54474 | 100.88038 | 14763 ft | 418 kts | 169° |
| 2026-05-07 10:27 | 4.51626 | 100.88487 | 14767 ft | 419 kts | 169° |
| 2026-05-07 10:27 | 4.48759 | 100.88944 | 14764 ft | 418 kts | 167° |
| 2026-05-07 10:27 | 4.46000 | 100.89615 | 14765 ft | 417 kts | 160° |
| 2026-05-07 10:28 | 4.43297 | 100.90646 | 14764 ft | 415 kts | 153° |
| 2026-05-07 10:28 | 4.40733 | 100.91907 | 14768 ft | 414 kts | 151° |
| 2026-05-07 10:28 | 4.38176 | 100.93164 | 14768 ft | 414 kts | 152° |
| 2026-05-07 10:28 | 4.35581 | 100.94428 | 14770 ft | 414 kts | 152° |
| 2026-05-07 10:29 | 4.32992 | 100.95686 | 14769 ft | 414 kts | 152° |
| 2026-05-07 10:29 | 4.30415 | 100.96939 | 14769 ft | 414 kts | 152° |
| 2026-05-07 10:29 | 4.27871 | 100.98177 | 14770 ft | 414 kts | 152° |
| 2026-05-07 10:30 | 4.22798 | 101.00646 | 14767 ft | 414 kts | 152° |
| 2026-05-07 10:30 | 4.20209 | 101.01907 | 14785 ft | 414 kts | 152° |
| 2026-05-07 10:30 | 4.17635 | 101.03160 | 14779 ft | 414 kts | 152° |
| 2026-05-07 10:30 | 4.15074 | 101.04407 | 14780 ft | 414 kts | 152° |
| 2026-05-07 10:31 | 4.12518 | 101.05652 | 14778 ft | 414 kts | 152° |
| 2026-05-07 10:31 | 4.09944 | 101.06904 | 14778 ft | 414 kts | 152° |
| 2026-05-07 10:31 | 4.07387 | 101.08149 | 14777 ft | 414 kts | 152° |
| 2026-05-07 10:31 | 4.04810 | 101.09404 | 14776 ft | 414 kts | 152° |
| 2026-05-07 10:32 | 4.02253 | 101.10648 | 14767 ft | 414 kts | 152° |
| 2026-05-07 10:32 | 3.99673 | 101.11903 | 14768 ft | 414 kts | 152° |
| 2026-05-07 10:32 | 3.97131 | 101.13140 | 14765 ft | 414 kts | 152° |
| 2026-05-07 10:32 | 3.94548 | 101.14397 | 14769 ft | 414 kts | 152° |
| 2026-05-07 10:33 | 3.91969 | 101.15652 | 14769 ft | 414 kts | 152° |
| 2026-05-07 10:33 | 3.89404 | 101.16900 | 14769 ft | 414 kts | 152° |
| 2026-05-07 10:33 | 3.86826 | 101.18154 | 14770 ft | 414 kts | 152° |
| 2026-05-07 10:33 | 3.84262 | 101.19402 | 14769 ft | 414 kts | 152° |
| 2026-05-07 10:34 | 3.81693 | 101.20651 | 14766 ft | 414 kts | 152° |
| 2026-05-07 10:34 | 3.79142 | 101.21952 | 14769 ft | 413 kts | 148° |
| 2026-05-07 10:34 | 3.76789 | 101.23526 | 14764 ft | 411 kts | 140° |
| 2026-05-07 10:34 | 3.74649 | 101.25393 | 14773 ft | 409 kts | 133° |
| 2026-05-07 10:35 | 3.72701 | 101.27475 | 14767 ft | 409 kts | 131° |
| 2026-05-07 10:35 | 3.70771 | 101.29549 | 14766 ft | 409 kts | 131° |
| 2026-05-07 10:35 | 3.68869 | 101.31577 | 14767 ft | 410 kts | 131° |
| 2026-05-07 10:35 | 3.66961 | 101.33606 | 14768 ft | 410 kts | 131° |
| 2026-05-07 10:36 | 3.65008 | 101.35685 | 14769 ft | 410 kts | 131° |
| 2026-05-07 10:36 | 3.63051 | 101.37768 | 14769 ft | 410 kts | 131° |
| 2026-05-07 10:36 | 3.61153 | 101.39790 | 14769 ft | 410 kts | 131° |
| 2026-05-07 10:36 | 3.59185 | 101.41888 | 14769 ft | 410 kts | 131° |
| 2026-05-07 10:37 | 3.57270 | 101.43930 | 14761 ft | 410 kts | 131° |
| 2026-05-07 10:37 | 3.55322 | 101.46005 | 14771 ft | 410 kts | 131° |
| 2026-05-07 10:37 | 3.53386 | 101.48069 | 14772 ft | 410 kts | 131° |
| 2026-05-07 10:37 | 3.51429 | 101.50154 | 14771 ft | 410 kts | 131° |
| 2026-05-07 10:38 | 3.49513 | 101.52196 | 14771 ft | 410 kts | 131° |
| 2026-05-07 10:38 | 3.47580 | 101.54255 | 14770 ft | 410 kts | 131° |
| 2026-05-07 10:38 | 3.45638 | 101.56324 | 14768 ft | 410 kts | 131° |
| 2026-05-07 10:38 | 3.43704 | 101.58385 | 14762 ft | 410 kts | 131° |
| 2026-05-07 10:39 | 3.41768 | 101.60447 | 14769 ft | 410 kts | 131° |
| 2026-05-07 10:39 | 3.39871 | 101.62467 | 14767 ft | 410 kts | 131° |
| 2026-05-07 10:39 | 3.37925 | 101.64540 | 14766 ft | 411 kts | 131° |
| 2026-05-07 10:39 | 3.36012 | 101.66578 | 14765 ft | 411 kts | 131° |
| 2026-05-07 10:40 | 3.34051 | 101.68666 | 14762 ft | 411 kts | 131° |
| 2026-05-07 10:40 | 3.32142 | 101.70700 | 14762 ft | 411 kts | 131° |
| 2026-05-07 10:40 | 3.30187 | 101.72781 | 14483 ft | 407 kts | 131° |
| 2026-05-07 10:40 | 3.28288 | 101.74803 | 14142 ft | 398 kts | 131° |
| 2026-05-07 10:41 | 3.26465 | 101.76808 | 13975 ft | 379 kts | 128° |
| 2026-05-07 10:41 | 3.24844 | 101.78805 | 13695 ft | 363 kts | 127° |
| 2026-05-07 10:41 | 3.23260 | 101.80747 | 12956 ft | 356 kts | 128° |
| 2026-05-07 10:41 | 3.21705 | 101.82648 | 12216 ft | 351 kts | 128° |
| 2026-05-07 10:42 | 3.20179 | 101.84511 | 11491 ft | 345 kts | 128° |
| 2026-05-07 10:42 | 3.18684 | 101.86337 | 10799 ft | 340 kts | 128° |
| 2026-05-07 10:42 | 3.17197 | 101.88153 | 10108 ft | 336 kts | 128° |
| 2026-05-07 10:42 | 3.15739 | 101.89934 | 9422 ft | 332 kts | 128° |
| 2026-05-07 10:43 | 3.14371 | 101.91745 | 8674 ft | 326 kts | 121° |
| 2026-05-07 10:43 | 3.13342 | 101.93711 | 7963 ft | 322 kts | 111° |
| 2026-05-07 10:43 | 3.12620 | 101.95800 | 7252 ft | 319 kts | 107° |
| 2026-05-07 10:43 | 3.11933 | 101.97892 | 6553 ft | 316 kts | 109° |
| 2026-05-07 10:44 | 3.11076 | 101.99843 | 5858 ft | 315 kts | 118° |
| 2026-05-07 10:44 | 3.09907 | 102.01647 | 5143 ft | 312 kts | 123° |
| 2026-05-07 10:44 | 3.08698 | 102.03419 | 4641 ft | 303 kts | 122° |
| 2026-05-07 10:44 | 3.07540 | 102.05076 | 4494 ft | 291 kts | 129° |
| 2026-05-07 10:45 | 3.06173 | 102.06513 | 4524 ft | 292 kts | 138° |
| 2026-05-07 10:45 | 3.04640 | 102.07830 | 4523 ft | 294 kts | 138° |
| 2026-05-07 10:45 | 3.03098 | 102.09173 | 4522 ft | 294 kts | 138° |
| 2026-05-07 10:45 | 3.01499 | 102.10434 | 4523 ft | 295 kts | 147° |
| 2026-05-07 10:46 | 2.99696 | 102.11389 | 4522 ft | 296 kts | 154° |
| 2026-05-07 10:46 | 2.97870 | 102.12266 | 4527 ft | 296 kts | 153° |
| 2026-05-07 10:46 | 2.96042 | 102.13161 | 4525 ft | 295 kts | 154° |
| 2026-05-07 10:46 | 2.94201 | 102.13819 | 4525 ft | 280 kts | 165° |
| 2026-05-07 10:47 | 2.92349 | 102.14181 | 4518 ft | 264 kts | 168° |
| 2026-05-07 10:47 | 2.90634 | 102.14519 | 4539 ft | 262 kts | 168° |
| 2026-05-07 10:47 | 2.88888 | 102.14868 | 4522 ft | 251 kts | 167° |
| 2026-05-07 10:47 | 2.87216 | 102.15048 | 4525 ft | 241 kts | 178° |
| 2026-05-07 10:48 | 2.85570 | 102.14945 | 4526 ft | 238 kts | 182° |
| 2026-05-07 10:48 | 2.83929 | 102.14835 | 4521 ft | 235 kts | 182° |
| 2026-05-07 10:48 | 2.82358 | 102.14441 | 4530 ft | 240 kts | 207° |
| 2026-05-07 10:48 | 2.81194 | 102.13337 | 4535 ft | 238 kts | 237° |
| 2026-05-07 10:49 | 2.80736 | 102.11757 | 4522 ft | 237 kts | 270° |
| 2026-05-07 10:49 | 2.80991 | 102.10151 | 4522 ft | 237 kts | 284° |
| 2026-05-07 10:49 | 2.81414 | 102.08613 | 4514 ft | 217 kts | 286° |
| 2026-05-07 10:49 | 2.81800 | 102.07204 | 4525 ft | 204 kts | 286° |
| 2026-05-07 10:50 | 2.82130 | 102.05857 | 4512 ft | 196 kts | 284° |
| 2026-05-07 10:50 | 2.82409 | 102.04572 | 4530 ft | 192 kts | 283° |
| 2026-05-07 10:50 | 2.82680 | 102.03269 | 4528 ft | 194 kts | 283° |
| 2026-05-07 10:50 | 2.82947 | 102.01941 | 4523 ft | 199 kts | 282° |
| 2026-05-07 10:51 | 2.83210 | 102.00598 | 4521 ft | 195 kts | 282° |
| 2026-05-07 10:51 | 2.83465 | 101.99284 | 4525 ft | 194 kts | 282° |
| 2026-05-07 10:51 | 2.83722 | 101.97965 | 4508 ft | 193 kts | 281° |
| 2026-05-07 10:51 | 2.83977 | 101.96658 | 4524 ft | 194 kts | 282° |
| 2026-05-07 10:52 | 2.84235 | 101.95350 | 4523 ft | 195 kts | 282° |
| 2026-05-07 10:52 | 2.84497 | 101.94021 | 4526 ft | 195 kts | 282° |
| 2026-05-07 10:52 | 2.84759 | 101.92687 | 4519 ft | 196 kts | 282° |
| 2026-05-07 10:52 | 2.85017 | 101.91375 | 4523 ft | 195 kts | 282° |
| 2026-05-07 10:53 | 2.85274 | 101.90058 | 4525 ft | 195 kts | 282° |
| 2026-05-07 10:53 | 2.85482 | 101.88751 | 4514 ft | 196 kts | 270° |
| 2026-05-07 10:53 | 2.85068 | 101.87504 | 4522 ft | 194 kts | 232° |
| 2026-05-07 10:53 | 2.83988 | 101.86756 | 4518 ft | 191 kts | 193° |
| 2026-05-07 10:54 | 2.82689 | 101.86733 | 4525 ft | 189 kts | 169° |
| 2026-05-07 10:54 | 2.81419 | 101.86973 | 4487 ft | 184 kts | 165° |
| 2026-05-07 10:54 | 2.80177 | 101.87216 | 4156 ft | 182 kts | 167° |
| 2026-05-07 10:54 | 2.78921 | 101.87407 | 4022 ft | 184 kts | 169° |
| 2026-05-07 10:55 | 2.77651 | 101.87554 | 4010 ft | 188 kts | 171° |
| 2026-05-07 10:55 | 2.76391 | 101.87670 | 3999 ft | 184 kts | 172° |
| 2026-05-07 10:55 | 2.75137 | 101.87776 | 4011 ft | 184 kts | 172° |
| 2026-05-07 10:55 | 2.73883 | 101.87880 | 4005 ft | 186 kts | 172° |
| 2026-05-07 10:56 | 2.72609 | 101.87988 | 4009 ft | 185 kts | 172° |
| 2026-05-07 10:56 | 2.71354 | 101.88092 | 3997 ft | 174 kts | 171° |
| 2026-05-07 10:56 | 2.70228 | 101.88178 | 3985 ft | 157 kts | 172° |
| 2026-05-07 10:56 | 2.69163 | 101.88271 | 3777 ft | 152 kts | 171° |
| 2026-05-07 10:57 | 2.68138 | 101.88362 | 3468 ft | 149 kts | 171° |
| 2026-05-07 10:57 | 2.67104 | 101.88452 | 3047 ft | 148 kts | 172° |
| 2026-05-07 10:57 | 2.66084 | 101.88541 | 2667 ft | 146 kts | 172° |
| 2026-05-07 10:57 | 2.65098 | 101.88624 | 2524 ft | 146 kts | 173° |
| 2026-05-07 10:58 | 2.64093 | 101.88709 | 2508 ft | 145 kts | 173° |
| 2026-05-07 10:58 | 2.63108 | 101.88792 | 2508 ft | 147 kts | 173° |
| 2026-05-07 10:58 | 2.62105 | 101.88875 | 2506 ft | 147 kts | 173° |
| 2026-05-07 10:58 | 2.61112 | 101.88956 | 2496 ft | 146 kts | 172° |
| 2026-05-07 10:59 | 2.60101 | 101.89042 | 2514 ft | 147 kts | 172° |
| 2026-05-07 10:59 | 2.59080 | 101.89125 | 2521 ft | 149 kts | 171° |
| 2026-05-07 10:59 | 2.58056 | 101.89212 | 2509 ft | 147 kts | 172° |
| 2026-05-07 10:59 | 2.57030 | 101.89300 | 2514 ft | 148 kts | 172° |
| 2026-05-07 11:00 | 2.56021 | 101.89389 | 2513 ft | 148 kts | 172° |
| 2026-05-07 11:00 | 2.54997 | 101.89475 | 2520 ft | 147 kts | 172° |
| 2026-05-07 11:00 | 2.53998 | 101.89559 | 2521 ft | 146 kts | 172° |
| 2026-05-07 11:00 | 2.52987 | 101.89618 | 2521 ft | 150 kts | 182° |
| 2026-05-07 11:01 | 2.52086 | 101.89145 | 2520 ft | 155 kts | 230° |
| 2026-05-07 11:01 | 2.51923 | 101.88107 | 2525 ft | 158 kts | 289° |
| 2026-05-07 11:01 | 2.52577 | 101.87262 | 2522 ft | 157 kts | 320° |
| 2026-05-07 11:01 | 2.53442 | 101.86609 | 2522 ft | 158 kts | 327° |
| 2026-05-07 11:02 | 2.54320 | 101.86022 | 2514 ft | 159 kts | 328° |
| 2026-05-07 11:02 | 2.55237 | 101.85407 | 2514 ft | 158 kts | 327° |
| 2026-05-07 11:02 | 2.56141 | 101.84795 | 2511 ft | 158 kts | 328° |
| 2026-05-07 11:02 | 2.57058 | 101.84183 | 2511 ft | 159 kts | 328° |
| 2026-05-07 11:03 | 2.57960 | 101.83567 | 2511 ft | 158 kts | 327° |
| 2026-05-07 11:03 | 2.58866 | 101.82958 | 2510 ft | 159 kts | 327° |
| 2026-05-07 11:03 | 2.59781 | 101.82343 | 2508 ft | 160 kts | 328° |
| 2026-05-07 11:03 | 2.60695 | 101.81727 | 2504 ft | 156 kts | 328° |
| 2026-05-07 11:04 | 2.61560 | 101.81147 | 2398 ft | 155 kts | 328° |
| 2026-05-07 11:04 | 2.62447 | 101.80545 | 2404 ft | 157 kts | 327° |
| 2026-05-07 11:04 | 2.63354 | 101.79939 | 2405 ft | 159 kts | 327° |
| 2026-05-07 11:04 | 2.64259 | 101.79326 | 2397 ft | 158 kts | 327° |
| 2026-05-07 11:05 | 2.65168 | 101.78714 | 2230 ft | 160 kts | 327° |
| 2026-05-07 11:05 | 2.66072 | 101.78101 | 2031 ft | 159 kts | 326° |
| 2026-05-07 11:05 | 2.66966 | 101.77504 | 1833 ft | 155 kts | 326° |
| 2026-05-07 11:05 | 2.67854 | 101.76904 | 1632 ft | 155 kts | 325° |
| 2026-05-07 11:06 | 2.68730 | 101.76315 | 1437 ft | 157 kts | 325° |
| 2026-05-07 11:06 | 2.69627 | 101.75713 | 1238 ft | 155 kts | 324° |
| 2026-05-07 11:06 | 2.70499 | 101.75118 | 1039 ft | 156 kts | 324° |
| 2026-05-07 11:06 | 2.71386 | 101.74528 | 874 ft | 151 kts | 325° |
| 2026-05-07 11:07 | 2.72231 | 101.73958 | 702 ft | 148 kts | 326° |
| 2026-05-07 11:07 | 2.73072 | 101.73389 | 520 ft | 146 kts | 326° |
| 2026-05-07 11:07 | 2.73884 | 101.72825 | 316 ft | 146 kts | 325° |
| 2026-05-07 11:07 | 2.74714 | 101.72273 | 138 ft | 146 kts | 327° |
| 2026-05-07 11:08 | 2.75527 | 101.71738 | 54 ft | 124 kts | 326° |
| 2026-05-07 11:08 | 2.76114 | 101.71346 | 55 ft | 84 kts | 326° |
| 2026-05-07 11:08 | 2.76531 | 101.71068 | 59 ft | 61 kts | 326° |
| 2026-05-07 11:08 | 2.76830 | 101.70864 | 55 ft | 35 kts | 311° |
| 2026-05-07 11:09 | 2.76894 | 101.70743 | 60 ft | 18 kts | 294° |
| 2026-05-07 11:09 | 2.76904 | 101.70652 | 58 ft | 8 kts | 225° |
| 2026-05-07 11:09 | 2.76860 | 101.70638 | 55 ft | 8 kts | 166° |
| 2026-05-07 11:09 | 2.76799 | 101.70668 | 58 ft | 12 kts | 148° |
| 2026-05-07 11:10 | 2.76717 | 101.70722 | 55 ft | 16 kts | 147° |
| 2026-05-07 11:10 | 2.76603 | 101.70796 | 53 ft | 26 kts | 146° |
| 2026-05-07 11:10 | 2.76416 | 101.70920 | 57 ft | 36 kts | 146° |
| 2026-05-07 11:10 | 2.76212 | 101.71026 | 57 ft | 30 kts | 165° |
| 2026-05-07 11:11 | 2.76021 | 101.71080 | 53 ft | 28 kts | 156° |
| 2026-05-07 11:11 | 2.75879 | 101.71155 | 57 ft | 14 kts | 188° |
| 2026-05-07 11:11 | 2.75811 | 101.71093 | 56 ft | 15 kts | 239° |
| 2026-05-07 11:11 | 2.75738 | 101.71038 | 54 ft | 14 kts | 224° |
| 2026-05-07 11:12 | 2.75687 | 101.70978 | 59 ft | 5 kts | 200° |
| 2026-05-07 11:12 | 2.75638 | 101.70980 | 55 ft | 8 kts | 156° |
| 2026-05-07 11:12 | 2.75634 | 101.70982 | 56 ft | 0 kts | 150° |
| 2026-05-07 11:12 | 2.75639 | 101.70979 | 55 ft | 0 kts | 147° |